Lavalette, West Virginia
Current Conditions -  °F | °C
As of 10:51 AM on Sunday 23 Nov 2014 (Local Time) from KHTS Reporting Station
Few Clouds Few Clouds  
Wind Chill: 60°   Ceiling: Unl
Heat Index: 60°   Visibility: 10mi
Dew Point: 39°   Wind: 5mph
Humidity: 46%   Direction: 110°ESE
Pressure: 29.98"   Gusts: NA
Location:  38.32°N, 82.45°W
Report Text: KHTS 231551Z 11004KT 10SM FEW060 16/04 A2998 RMK AO2 SLP149 T01560039
Loading
Personal Weather Stations






























Interactive Weather Map New forecast layout! Learn more

10-Day Weather Forecast

Advertisements
Track Severe Weather on mobile